Airfield :
LOGIN :

Register | Disclaimer

   EN    FR    IT 

 










Legend :    VFR   Marginal VFR   IFR   Intensive IFR   Very Intensive IFR
Visi :
Ceiling :
>= 8 km
>= 3000ft
5 to 8 km
1000 to 3000 ft
1500m to 5 km
500 to 1000 ft
800 to 1500m
200 to 500 ft
< 800m
< 200 ft
Symbols :   Thunderstorms  Fog  Heavy snow  Heavy precipitations  Wind > 20 kt
SIGMETs :     Misc.  Thunderstorms  Icing  Turbulence  Mountain Waves  Volcanic Ashes







- Airport Elevation : 33 ft
- IATA code : MHZ


EGUN - RAF Mildenhall

CURRENT METAR :
  • 221056Z AUTO 09016KT 9999 FEW170 FEW200 22/05 A2972 RMK AO2 RAE0956DZB0956E00RAB00E07RAB08E10RAB13E14RAB17E28RAB41E41 SLP067 P0000 T02200054 $

EXPIRED METARs :
  • 221042Z AUTO 10015KT 9999 FEW190 22/05 A2972 RMK AO2 RAE0956DZB0956E00RAB00E07RAB08E10RAB13E14RAB17E28RAB41E41 SLP067 $
  • 221028Z AUTO 11015KT 9999 FEW210 22/06 A2973 RMK AO2 RAE0956DZB0956E00RAB00E07RAB08E10RAB13E14RAB17E28 SLP071 $
  • 221019Z AUTO 13014G18KT 9999 -RA FEW180 FEW210 22/07 A2973 RMK AO2 WSHFT 09 RAE0956DZB0956E00RAB00E07RAB08E10RAB13E14RAB17 SLP071 $
  • 221014Z AUTO 11014G19KT 9999 FEW190 22/07 A2973 RMK AO2 RAE0956DZB0956E00RAB00E07RAB08E10RAB13E14 SLP071 $
  • 220956Z AUTO 10009KT 9999 -RA SCT190 21/08 A2974 RMK AO2 RAB30E36RAB50 SLP074 P0000 T02050078 $
  • 220950Z AUTO 10009KT 9999 -RA SCT190 21/08 A2974 RMK AO2 RAB30E36RAB50 SLP074 $
  • 220856Z AUTO 00000KT 9999 CLR 17/12 A2976 RMK AO2 SLP081 T01690124 57017 $

TAF COR TAF EGUN
Valid from the 22 at 08:00 until the 23 at 10:00 UTC


221138Z 2208/2310 10008KT 9999 SKC QNH2958INS
TEMPO 2213/2218 10012G20KT
BECMG 2218/2219 10009KT 9999 SCT080 QNH2955INS
BECMG 2223/2224 VRB06KT 5000 BR SCT010 QNH2950INS
BECMG 2307/2308 10012G20KT 9999 NSW SKC QNH2950INS TX22/2212Z TN04/2304Z LAST NO AMDS 2211 NEXT 2304
No reported NOTAMs for that airfield.



MET'MAP, your aeronautical weather chart ! - Copyright ORBIFLY December 2007 - Disclaimer

ORBIFLY MET'MAP TEAM :

Programming & Development : Alexandra Zaïnal
Concept & Development : Baudouin d'Aumeries
Co-Development & Prog : Marc-Olivier Méhu
Technical & hardware support : Manuel Goepfert

Contact : metmap@orbifly.com




SOURCES & CREDITS :

   NOAA